createdAt,value
2023-04-15T00:11:08.483Z,99348.59
2023-04-15T00:13:38.667Z,99358.19
2023-04-15T00:16:08.600Z,99353.69
2023-04-15T00:18:37.611Z,99345.97
2023-04-15T00:21:05.759Z,99336.72
2023-04-15T00:23:33.608Z,99342.34
2023-04-15T00:26:01.837Z,99345.97
2023-04-15T00:28:31.298Z,99353.56
2023-04-15T00:48:42.558Z,99363.00
2023-04-15T00:51:11.769Z,99363.00
2023-04-15T00:53:39.772Z,99362.38
2023-04-15T00:56:07.861Z,99353.50
2023-04-15T00:58:37.308Z,99338.09
2023-04-15T01:01:05.348Z,99361.34
2023-04-15T01:03:33.958Z,99356.97
2023-04-15T01:06:05.495Z,99359.25
2023-04-15T01:29:18.796Z,99360.84
2023-04-15T01:31:56.136Z,99360.84
2023-04-15T01:34:27.214Z,99374.88
2023-04-15T01:36:55.718Z,99363.81
2023-04-15T01:39:23.725Z,99351.66
2023-04-15T01:41:51.616Z,99371.78
2023-04-15T01:44:19.974Z,99375.06
2023-04-15T01:46:48.524Z,99379.50
2023-04-15T02:07:01.815Z,99379.50
2023-04-15T02:09:31.146Z,99365.91
2023-04-15T02:11:59.074Z,99377.88
2023-04-15T02:14:27.204Z,99381.94
2023-04-15T02:16:55.701Z,99338.16
2023-04-15T02:19:23.750Z,99380.97
2023-04-15T02:21:51.575Z,99383.50
2023-04-15T02:24:19.919Z,99381.03
2023-04-15T02:44:45.799Z,99378.03
2023-04-15T02:47:15.096Z,99378.03
2023-04-15T02:49:43.428Z,99371.97
2023-04-15T02:52:11.518Z,99365.28
2023-04-15T02:54:39.694Z,99367.06
2023-04-15T02:57:07.713Z,99368.53
2023-04-15T02:59:35.790Z,99355.47
2023-04-15T03:02:04.559Z,99342.41
2023-04-15T03:22:15.067Z,99363.94
2023-04-15T03:24:43.708Z,99363.94
2023-04-15T03:27:12.080Z,99348.97
2023-04-15T03:29:40.657Z,99357.44
2023-04-15T03:32:09.054Z,99351.41
2023-04-15T03:34:36.945Z,99362.09
2023-04-15T03:37:06.199Z,99342.59
2023-04-15T04:00:14.464Z,99367.69
2023-04-15T04:02:43.093Z,99367.69
2023-04-15T04:05:11.386Z,99360.34
2023-04-15T04:07:39.234Z,99358.38
2023-04-15T04:10:08.009Z,99364.62
2023-04-15T04:12:36.151Z,99364.91
2023-04-15T04:15:04.842Z,99365.06
2023-04-15T04:17:33.140Z,99351.00
2023-04-15T04:40:09.879Z,99379.81
2023-04-15T04:42:39.997Z,99379.81
2023-04-15T04:45:08.816Z,99384.06
2023-04-15T04:47:36.854Z,99377.84
2023-04-15T04:50:05.523Z,99374.91
2023-04-15T04:52:33.537Z,99376.53
2023-04-15T04:55:01.427Z,99379.78
2023-04-15T04:57:30.176Z,99372.44
2023-04-15T05:15:14.125Z,99386.88
2023-04-15T05:17:42.656Z,99386.88
2023-04-15T05:20:12.036Z,99382.88
2023-04-15T05:22:39.981Z,99369.06
2023-04-15T05:25:08.856Z,99383.53
2023-04-15T05:27:36.929Z,99351.47
2023-04-15T05:30:05.656Z,99396.97
2023-04-15T05:32:33.904Z,99400.69
2023-04-15T05:52:23.423Z,99417.19
2023-04-15T05:54:51.961Z,99415.91
2023-04-15T05:57:19.747Z,99419.56
2023-04-15T05:59:47.767Z,99394.53
2023-04-15T06:02:16.616Z,99408.25
2023-04-15T06:04:44.926Z,99414.22
2023-04-15T06:07:12.854Z,99426.59
2023-04-15T06:30:19.278Z,99439.91
2023-04-15T06:32:48.701Z,99439.91
2023-04-15T06:35:16.609Z,99450.81
2023-04-15T06:37:44.525Z,99444.94
2023-04-15T06:40:12.985Z,99443.59
2023-04-15T06:42:40.806Z,99449.97
2023-04-15T06:45:09.660Z,99438.84
2023-04-15T07:05:51.707Z,99448.09
2023-04-15T07:08:21.004Z,99448.09
2023-04-15T07:10:48.961Z,99455.00
2023-04-15T07:13:17.563Z,99453.34
2023-04-15T07:15:46.065Z,99461.72
2023-04-15T07:18:14.227Z,99461.66
2023-04-15T07:20:43.104Z,99451.09
2023-04-15T07:40:53.230Z,99476.88
2023-04-15T07:43:22.192Z,99471.81
2023-04-15T07:45:50.207Z,99484.50
2023-04-15T07:48:18.751Z,99489.06
2023-04-15T07:50:46.992Z,99479.06
2023-04-15T07:53:15.880Z,99477.16
2023-04-15T07:58:26.082Z,99486.59
2023-04-15T08:18:08.197Z,99498.03
2023-04-15T08:20:37.364Z,99498.03
2023-04-15T08:23:05.203Z,99479.09
2023-04-15T08:25:33.542Z,99508.19
2023-04-15T08:28:05.633Z,99506.28
2023-04-15T08:30:33.503Z,99501.16
2023-04-15T08:33:01.866Z,99509.09
2023-04-15T08:35:29.727Z,99509.69
2023-04-15T08:37:58.118Z,99490.16
2023-04-15T08:58:11.524Z,99522.88
2023-04-15T09:00:40.885Z,99522.88
2023-04-15T09:03:09.722Z,99515.03
2023-04-15T09:05:38.607Z,99536.06
2023-04-15T09:08:06.876Z,99526.09
2023-04-15T09:10:34.851Z,99510.03
2023-04-15T09:13:02.986Z,99538.56
2023-04-15T09:39:02.210Z,99551.59
2023-04-15T09:41:30.748Z,99551.59
2023-04-15T09:43:58.556Z,99551.78
2023-04-15T09:46:45.830Z,99552.41
2023-04-15T09:49:14.108Z,99545.09
2023-04-15T09:51:46.569Z,99540.75
2023-04-15T09:54:22.637Z,99542.22
2023-04-15T10:15:16.669Z,99551.78
2023-04-15T10:17:46.510Z,99551.78
2023-04-15T10:20:16.398Z,99549.44
2023-04-15T10:22:47.033Z,99537.44
2023-04-15T10:25:15.866Z,99566.78
2023-04-15T10:27:44.379Z,99533.72
2023-04-15T10:30:12.906Z,99556.59
2023-04-15T10:32:41.954Z,99562.50
2023-04-15T10:53:06.388Z,99557.06
2023-04-15T10:55:35.139Z,99557.06
2023-04-15T10:58:03.440Z,99561.13
2023-04-15T11:00:33.038Z,99550.16
2023-04-15T11:03:09.664Z,99556.88
2023-04-15T11:05:52.292Z,99533.66
2023-04-15T11:08:21.109Z,99559.13
2023-04-15T11:10:49.105Z,99549.97
2023-04-15T11:31:20.301Z,99556.88
2023-04-15T11:33:58.256Z,99556.88
2023-04-15T11:36:30.270Z,99562.94
2023-04-15T11:38:59.930Z,99552.22
2023-04-15T11:41:27.733Z,99558.19
2023-04-15T11:43:56.226Z,99560.00
2023-04-15T11:46:31.652Z,99567.16
2023-04-15T11:49:00.366Z,99564.75
2023-04-15T11:51:33.376Z,99563.97
2023-04-15T12:12:12.470Z,99558.22
2023-04-15T12:14:42.422Z,99558.22
2023-04-15T12:17:11.584Z,99549.66
2023-04-15T12:19:41.897Z,99560.22
2023-04-15T12:22:13.192Z,99558.78
2023-04-15T12:24:44.169Z,99544.75
2023-04-15T12:27:14.191Z,99545.03
2023-04-15T12:50:07.709Z,99551.72
2023-04-15T12:52:36.498Z,99551.72
2023-04-15T12:55:04.575Z,99563.06
2023-04-15T12:57:32.462Z,99559.00
2023-04-15T13:00:00.866Z,99555.47
2023-04-15T13:02:29.505Z,99563.09
2023-04-15T13:04:57.660Z,99562.81
2023-04-15T13:07:26.193Z,99569.13
2023-04-15T13:27:39.674Z,99575.81
2023-04-15T13:30:09.293Z,99575.81
2023-04-15T13:32:37.275Z,99573.19
2023-04-15T13:35:06.157Z,99561.03
2023-04-15T13:37:34.345Z,99578.62
2023-04-15T13:40:02.932Z,99577.06
2023-04-15T13:42:31.118Z,99566.28
2023-04-15T14:00:15.610Z,99584.41
2023-04-15T14:02:44.742Z,99584.41
2023-04-15T14:05:12.664Z,99592.59
2023-04-15T14:07:41.092Z,99588.97
2023-04-15T14:10:09.268Z,99583.41
2023-04-15T14:12:37.247Z,99579.13
2023-04-15T14:15:05.691Z,99586.91
2023-04-15T14:37:42.430Z,99638.59
2023-04-15T14:40:11.318Z,99638.59
2023-04-15T14:42:39.520Z,99639.75
2023-04-15T14:45:08.132Z,99649.69
2023-04-15T14:47:36.648Z,99652.22
2023-04-15T14:50:05.539Z,99649.78
2023-04-15T14:52:38.890Z,99631.44
2023-04-15T15:13:09.955Z,99679.13
2023-04-15T15:15:39.513Z,99679.13
2023-04-15T15:18:07.528Z,99677.72
2023-04-15T15:20:36.257Z,99689.72
2023-04-15T15:23:04.446Z,99691.13
2023-04-15T15:25:32.368Z,99711.91
2023-04-15T15:28:00.572Z,99717.78
2023-04-15T15:51:18.544Z,99717.81
2023-04-15T15:53:47.119Z,99671.25
2023-04-15T15:56:15.362Z,99719.59
2023-04-15T15:58:46.454Z,99730.41
2023-04-15T16:01:14.779Z,99733.63
2023-04-15T16:03:43.486Z,99731.97
2023-04-15T16:06:11.766Z,99716.91
2023-04-15T16:08:39.813Z,99732.34
2023-04-15T16:28:52.548Z,99728.00
2023-04-15T16:31:21.208Z,99728.00
2023-04-15T16:33:49.165Z,99746.59
2023-04-15T16:36:16.991Z,99754.31
2023-04-15T16:38:48.852Z,99741.50
2023-04-15T16:41:16.763Z,99745.88
2023-04-15T16:43:44.779Z,99754.94
2023-04-15T17:03:56.165Z,99751.94
2023-04-15T17:06:25.039Z,99751.94
2023-04-15T17:08:52.996Z,99750.84
2023-04-15T17:11:21.076Z,99763.03
2023-04-15T17:13:49.479Z,99760.22
2023-04-15T17:16:17.479Z,99754.84
2023-04-15T17:18:47.630Z,99758.09
2023-04-15T17:41:28.615Z,99793.06
2023-04-15T17:43:57.236Z,99800.97
2023-04-15T17:46:25.309Z,99795.41
2023-04-15T17:48:53.455Z,99799.19
2023-04-15T17:51:22.100Z,99814.66
2023-04-15T17:53:50.516Z,99818.75
2023-04-15T17:56:18.661Z,99820.03
2023-04-15T18:19:30.845Z,99847.75
2023-04-15T18:22:03.393Z,99847.75
2023-04-15T18:24:31.710Z,99852.91
2023-04-15T18:27:00.393Z,99855.56
2023-04-15T18:29:28.325Z,99870.56
2023-04-15T18:31:58.900Z,99860.72
2023-04-15T18:34:27.365Z,99848.09
2023-04-15T18:36:59.999Z,99879.84
2023-04-15T18:57:32.912Z,99927.09
2023-04-15T19:00:04.792Z,99937.84
2023-04-15T19:02:33.489Z,99893.50
2023-04-15T19:05:04.336Z,99909.81
2023-04-15T19:07:33.221Z,99941.91
2023-04-15T19:10:02.497Z,99946.00
2023-04-15T19:12:31.292Z,99940.72
2023-04-15T19:14:59.630Z,99927.47
2023-04-15T19:32:29.051Z,99955.66
2023-04-15T19:34:58.004Z,99955.66
2023-04-15T19:37:26.468Z,99962.37
2023-04-15T19:39:56.239Z,99970.59
2023-04-15T19:42:24.762Z,99960.94
2023-04-15T19:44:52.925Z,99963.06
2023-04-15T19:47:21.577Z,99962.22
2023-04-15T19:52:41.655Z,99971.22
2023-04-15T19:55:10.587Z,99971.22
2023-04-15T19:57:38.952Z,99940.47
2023-04-15T20:00:08.322Z,99963.75
2023-04-15T20:02:37.015Z,99964.34
2023-04-15T20:05:09.901Z,99963.94
2023-04-15T20:07:42.737Z,99971.06
2023-04-15T20:25:28.320Z,99988.09
2023-04-15T20:28:00.412Z,99988.09
2023-04-15T20:30:29.404Z,99989.91
2023-04-15T20:32:57.834Z,99989.00
2023-04-15T20:35:28.332Z,99992.72
2023-04-15T20:37:56.614Z,99991.88
2023-04-15T20:40:25.125Z,100001.38
2023-04-15T21:03:34.480Z,100009.22
2023-04-15T21:06:03.172Z,100009.22
2023-04-15T21:08:31.714Z,100018.66
2023-04-15T21:10:59.874Z,100007.44
2023-04-15T21:13:28.241Z,100023.31
2023-04-15T21:15:56.239Z,100014.94
2023-04-15T21:18:24.182Z,100019.38
2023-04-15T21:21:06.116Z,100027.41
2023-04-15T21:38:51.032Z,100014.31
2023-04-15T21:41:19.824Z,100014.31
2023-04-15T21:43:47.706Z,100000.28
2023-04-15T21:46:24.193Z,100003.47
2023-04-15T21:48:53.644Z,100014.56
2023-04-15T21:51:21.713Z,100010.13
2023-04-15T21:53:49.763Z,100006.37
2023-04-15T22:16:31.309Z,100026.16
2023-04-15T22:19:00.041Z,100026.16
2023-04-15T22:21:28.443Z,100027.47
2023-04-15T22:24:32.770Z,100017.00
2023-04-15T22:26:44.538Z,100024.09
2023-04-15T22:29:12.435Z,100017.13
2023-04-15T22:31:40.796Z,100033.69
2023-04-15T22:34:09.050Z,100032.22
2023-04-15T22:51:27.051Z,100058.78
2023-04-15T22:53:56.268Z,100058.78
2023-04-15T22:56:24.081Z,100043.66
2023-04-15T22:58:51.981Z,100040.34
2023-04-15T23:01:21.278Z,100052.16
2023-04-15T23:03:56.110Z,100040.87
2023-04-15T23:06:27.199Z,100058.25
2023-04-15T23:08:55.245Z,100024.09
2023-04-15T23:29:04.885Z,100036.81
2023-04-15T23:31:33.557Z,100036.81
2023-04-15T23:34:02.491Z,100031.81
2023-04-15T23:36:30.246Z,100042.62
2023-04-15T23:38:59.116Z,100040.37
2023-04-15T23:41:26.944Z,100004.88
2023-04-15T23:43:54.772Z,100022.97
2023-04-15T23:46:23.515Z,100038.38
